This is the latest recevied weather packets stored in our database for station/object N1OTX. If no packets are shown the sender has not sent any weather packets the latest 10 day(s).
| Time | Temp. | Humidity | Pressure | Rain* | Wind** | Luminosity | Snow |
|---|---|---|---|---|---|---|---|
| 1777979730 | 14.44° C | 73% | 1009.8 hPa | 0 mm | - | 129 W/m² | - |
| 1777978529 | 12.78° C | 77% | 1009.9 hPa | 0 mm | - | 81 W/m² | - |
| 1777977331 | 12.22° C | 79% | 1009.7 hPa | 0 mm | - | 48 W/m² | - |
| 1777976130 | 11.67° C | 80% | 1009.7 hPa | 0 mm | - | 23 W/m² | - |
| 1777971034 | 11.67° C | 76% | 1010 hPa | 0 mm | - | 0 W/m² | - |
| 1777970429 | 11.11° C | 76% | 1010.1 hPa | 0 mm | - | 0 W/m² | - |
| 1777970129 | 11.11° C | 76% | 1010.1 hPa | 0 mm | - | 0 W/m² | - |
| 1777969529 | 11.11° C | 76% | 1010.1 hPa | 0 mm | - | 0 W/m² | - |
| 1777968928 | 11.11° C | 75% | 1009.9 hPa | 0 mm | - | 0 W/m² | - |
| 1777967130 | 11.11° C | 74% | 1010 hPa | 0 mm | - | 0 W/m² | - |
| 1777963529 | 11.67° C | 72% | 1010.3 hPa | 0 mm | - | 0 W/m² | - |
| 1777962050 | 11.67° C | 72% | 1010.4 hPa | 0 mm | - | 0 W/m² | - |
| 1777959929 | 12.22° C | 68% | 1010.4 hPa | 0 mm | - | 0 W/m² | - |
| 1777958430 | 12.78° C | 66% | 1010.5 hPa | 0 mm | - | 0 W/m² | - |
| 1777956930 | 12.78° C | 65% | 1010.5 hPa | 0 mm | - | 0 W/m² | - |
| 1777955171 | 13.33° C | 62% | 1010.5 hPa | 0 mm | - | 0 W/m² | - |
| 1777954551 | 13.33° C | 61% | 1010.5 hPa | 0 mm | - | 0 W/m² | - |
| 1777948230 | 14.44° C | 52% | 1010.5 hPa | 0 mm | - | 0 W/m² | - |
| 1777945230 | 15.56° C | 49% | 1010.1 hPa | 0 mm | - | 0 W/m² | - |
| 1777940750 | 17.22° C | 43% | 1008.6 hPa | 0 mm | - | 0 W/m² | - |
| 1777937731 | 18.33° C | 39% | 1007.7 hPa | 0 mm | - | 8 W/m² | - |
| 1777936230 | 19.44° C | 36% | 1007.3 hPa | 0 mm | - | 23 W/m² | - |
| 1777934729 | 20.56° C | 33% | 1006.7 hPa | 0 mm | - | 34 W/m² | - |
| 1777932630 | 21.11° C | 29% | 1006.5 hPa | 0 mm | - | 70 W/m² | - |
| 1777929951 | 21.67° C | 28% | 1006.6 hPa | 0 mm | - | 172 W/m² | - |
* Rain latest hour (hover to see other rain measurements)
** Current wind speed in m/s (hover to see current wind gust speed)